JAF33A EBAW-LEMG
Flight info
| Callsign | JAF33A |
|---|---|
| Flight time | N/A |
| Altitude | 39000 |
| Route | NIK N872 LESDO DCT KOVIN DCT DUCRA UM728 RESMI UN857 DISAK DCT ARKIP DCT ARNAV DCT LMG DCT UVELI DCT OSMOB DCT VAVIX DCT NETUK DCT PPN DCT NOLSA N857 VASUM DCT BANEV DCT BAN DCT PINAR DCT CJN DCT INTAX DCT NASOS DCT ANZAN DCT BLN |
| Aircraft | E190/M-SDE3GILORVW/S |
Departure
| Time | N/A |
|---|---|
| Airport | Antwerp International Airport (Deurne) (EBAW) |
Arrival
| Time | 2026-05-06 14:23 |
|---|---|
| Airport | Málaga-Costa del Sol Airport (LEMG) |
| Time | Latitude | Longitude | Altitude | Speed | Heading |
|---|---|---|---|---|---|
| 2026-05-06 12:26 | 48.23467 | 2.10996 | 38898 ft | 451 kts | 172° |
| 2026-05-06 12:26 | 48.20372 | 2.11673 | 38884 ft | 451 kts | 173° |
| 2026-05-06 12:26 | 48.14196 | 2.12878 | 38881 ft | 451 kts | 178° |
| 2026-05-06 12:27 | 48.07967 | 2.12144 | 38897 ft | 450 kts | 188° |
| 2026-05-06 12:27 | 48.01792 | 2.10953 | 38890 ft | 450 kts | 188° |
| 2026-05-06 12:28 | 47.95596 | 2.09767 | 38903 ft | 449 kts | 188° |
| 2026-05-06 12:28 | 47.89572 | 2.08617 | 38913 ft | 450 kts | 188° |
| 2026-05-06 12:29 | 47.83405 | 2.07442 | 38912 ft | 450 kts | 188° |
| 2026-05-06 12:29 | 47.77246 | 2.06273 | 38906 ft | 450 kts | 188° |
| 2026-05-06 12:30 | 47.71074 | 2.05103 | 38908 ft | 451 kts | 188° |
| 2026-05-06 12:30 | 47.64867 | 2.03908 | 38902 ft | 449 kts | 191° |
| 2026-05-06 12:31 | 47.58949 | 2.01105 | 38911 ft | 448 kts | 202° |
| 2026-05-06 12:31 | 47.53183 | 1.97750 | 38900 ft | 448 kts | 202° |
| 2026-05-06 12:32 | 47.47385 | 1.94393 | 38898 ft | 448 kts | 202° |
| 2026-05-06 12:32 | 47.41575 | 1.91038 | 38896 ft | 448 kts | 202° |
| 2026-05-06 12:33 | 47.35812 | 1.87719 | 38899 ft | 448 kts | 202° |
| 2026-05-06 12:33 | 47.30004 | 1.84381 | 38899 ft | 449 kts | 202° |
| 2026-05-06 12:34 | 47.24168 | 1.81035 | 38903 ft | 449 kts | 202° |
| 2026-05-06 12:34 | 47.18356 | 1.77726 | 38902 ft | 447 kts | 202° |
| 2026-05-06 12:35 | 47.12539 | 1.74446 | 38900 ft | 448 kts | 202° |
| 2026-05-06 12:35 | 47.06746 | 1.71186 | 38896 ft | 449 kts | 202° |
| 2026-05-06 12:36 | 47.00939 | 1.67926 | 38896 ft | 449 kts | 202° |
| 2026-05-06 12:36 | 46.95105 | 1.64659 | 38893 ft | 449 kts | 202° |
| 2026-05-06 12:37 | 46.89325 | 1.61429 | 38894 ft | 448 kts | 202° |
| 2026-05-06 12:37 | 46.83577 | 1.58225 | 38895 ft | 447 kts | 202° |
| 2026-05-06 12:38 | 46.78513 | 1.55408 | 38892 ft | 448 kts | 202° |
| 2026-05-06 12:38 | 46.72686 | 1.52174 | 38890 ft | 448 kts | 202° |
| 2026-05-06 12:39 | 46.66872 | 1.48954 | 38888 ft | 447 kts | 202° |
| 2026-05-06 12:39 | 46.61047 | 1.45735 | 38887 ft | 448 kts | 202° |
| 2026-05-06 12:40 | 46.55212 | 1.42519 | 38888 ft | 449 kts | 202° |
| 2026-05-06 12:40 | 46.49372 | 1.39308 | 38888 ft | 449 kts | 202° |
| 2026-05-06 12:41 | 46.43552 | 1.36114 | 38884 ft | 448 kts | 202° |
| 2026-05-06 12:41 | 46.37839 | 1.32986 | 38890 ft | 448 kts | 201° |
| 2026-05-06 12:42 | 46.32035 | 1.29816 | 38886 ft | 449 kts | 201° |
| 2026-05-06 12:42 | 46.26228 | 1.26652 | 38885 ft | 448 kts | 201° |
| 2026-05-06 12:43 | 46.20368 | 1.23465 | 38882 ft | 449 kts | 201° |
| 2026-05-06 12:43 | 46.14546 | 1.20307 | 38885 ft | 449 kts | 201° |
| 2026-05-06 12:44 | 46.08669 | 1.17125 | 38882 ft | 448 kts | 201° |
| 2026-05-06 12:44 | 46.02877 | 1.13998 | 38885 ft | 448 kts | 201° |
| 2026-05-06 12:45 | 45.97001 | 1.10832 | 38892 ft | 448 kts | 201° |
| 2026-05-06 12:46 | 45.88322 | 1.06168 | 38891 ft | 448 kts | 201° |
| 2026-05-06 12:46 | 45.82606 | 1.02939 | 38893 ft | 447 kts | 208° |
| 2026-05-06 12:47 | 45.77632 | 0.97864 | 38903 ft | 445 kts | 221° |
| 2026-05-06 12:47 | 45.72885 | 0.92129 | 38893 ft | 445 kts | 221° |
| 2026-05-06 12:48 | 45.68163 | 0.86482 | 38896 ft | 445 kts | 221° |
| 2026-05-06 12:48 | 45.63402 | 0.80804 | 38900 ft | 445 kts | 221° |
| 2026-05-06 12:49 | 45.58673 | 0.75177 | 38904 ft | 444 kts | 221° |
| 2026-05-06 12:49 | 45.53950 | 0.69570 | 38902 ft | 444 kts | 221° |
| 2026-05-06 12:50 | 45.49212 | 0.63959 | 38903 ft | 444 kts | 221° |
| 2026-05-06 12:50 | 45.44451 | 0.58333 | 38902 ft | 444 kts | 221° |
| 2026-05-06 12:51 | 45.39691 | 0.52721 | 38897 ft | 445 kts | 221° |
| 2026-05-06 12:51 | 45.34921 | 0.47109 | 38896 ft | 444 kts | 221° |
| 2026-05-06 12:52 | 45.30175 | 0.41539 | 38894 ft | 444 kts | 221° |
| 2026-05-06 12:52 | 45.25402 | 0.35948 | 38888 ft | 445 kts | 221° |
| 2026-05-06 12:53 | 45.20644 | 0.30389 | 38895 ft | 444 kts | 220° |
| 2026-05-06 12:53 | 45.15908 | 0.24867 | 38898 ft | 443 kts | 220° |
| 2026-05-06 12:54 | 45.11111 | 0.19287 | 38896 ft | 445 kts | 220° |
| 2026-05-06 12:54 | 45.06329 | 0.13737 | 38890 ft | 445 kts | 220° |
| 2026-05-06 12:55 | 45.01559 | 0.08213 | 38884 ft | 445 kts | 220° |
| 2026-05-06 12:55 | 44.96773 | 0.02683 | 38886 ft | 446 kts | 220° |
| 2026-05-06 12:56 | 44.91954 | -0.02873 | 38886 ft | 446 kts | 221° |
| 2026-05-06 12:56 | 44.87265 | -0.08266 | 38895 ft | 444 kts | 221° |
| 2026-05-06 12:57 | 44.82497 | -0.13740 | 38894 ft | 445 kts | 221° |
| 2026-05-06 12:57 | 44.77776 | -0.19145 | 38906 ft | 443 kts | 221° |
| 2026-05-06 12:58 | 44.72997 | -0.24607 | 38904 ft | 443 kts | 221° |
| 2026-05-06 12:58 | 44.68220 | -0.30055 | 38907 ft | 443 kts | 221° |
| 2026-05-06 12:59 | 44.63369 | -0.35400 | 38906 ft | 444 kts | 216° |
| 2026-05-06 12:59 | 44.58208 | -0.40291 | 38915 ft | 444 kts | 217° |
| 2026-05-06 13:00 | 44.53130 | -0.45170 | 38916 ft | 445 kts | 217° |
| 2026-05-06 13:00 | 44.48075 | -0.50022 | 38913 ft | 444 kts | 217° |
| 2026-05-06 13:01 | 44.42979 | -0.54903 | 38918 ft | 444 kts | 217° |
| 2026-05-06 13:01 | 44.37899 | -0.59758 | 38924 ft | 443 kts | 217° |
| 2026-05-06 13:02 | 44.32783 | -0.64638 | 38927 ft | 443 kts | 217° |
| 2026-05-06 13:02 | 44.27689 | -0.69485 | 38932 ft | 444 kts | 216° |
| 2026-05-06 13:03 | 44.22559 | -0.74214 | 38931 ft | 444 kts | 215° |
| 2026-05-06 13:03 | 44.17390 | -0.78968 | 38933 ft | 445 kts | 215° |
| 2026-05-06 13:04 | 44.12249 | -0.83686 | 38934 ft | 443 kts | 215° |
| 2026-05-06 13:04 | 44.07077 | -0.88423 | 38938 ft | 443 kts | 215° |
| 2026-05-06 13:05 | 44.01950 | -0.93110 | 38940 ft | 443 kts | 215° |
| 2026-05-06 13:05 | 43.96770 | -0.97835 | 38949 ft | 444 kts | 215° |
| 2026-05-06 13:06 | 43.91655 | -1.02490 | 38951 ft | 443 kts | 216° |
| 2026-05-06 13:06 | 43.86510 | -1.07163 | 38960 ft | 442 kts | 216° |
| 2026-05-06 13:07 | 43.81372 | -1.11821 | 38964 ft | 443 kts | 216° |
| 2026-05-06 13:07 | 43.76233 | -1.16469 | 38966 ft | 442 kts | 216° |
| 2026-05-06 13:08 | 43.71061 | -1.21138 | 38966 ft | 442 kts | 216° |
| 2026-05-06 13:08 | 43.65942 | -1.25748 | 38967 ft | 441 kts | 216° |
| 2026-05-06 13:09 | 43.60782 | -1.30386 | 38971 ft | 442 kts | 216° |
| 2026-05-06 13:09 | 43.55666 | -1.34975 | 38973 ft | 440 kts | 216° |
| 2026-05-06 13:10 | 43.50555 | -1.39551 | 38982 ft | 439 kts | 216° |
| 2026-05-06 13:10 | 43.45434 | -1.44125 | 38982 ft | 440 kts | 216° |
| 2026-05-06 13:11 | 43.40332 | -1.48673 | 38987 ft | 439 kts | 216° |
| 2026-05-06 13:11 | 43.35220 | -1.53222 | 38993 ft | 439 kts | 216° |
| 2026-05-06 13:12 | 43.30076 | -1.57789 | 38990 ft | 439 kts | 216° |
| 2026-05-06 13:12 | 43.24571 | -1.61445 | 38996 ft | 445 kts | 200° |
| 2026-05-06 13:13 | 43.18416 | -1.62812 | 38997 ft | 450 kts | 190° |
| 2026-05-06 13:13 | 43.12233 | -1.63812 | 38995 ft | 449 kts | 191° |
| 2026-05-06 13:14 | 43.06027 | -1.64836 | 38985 ft | 449 kts | 191° |
| 2026-05-06 13:14 | 42.99795 | -1.65864 | 38994 ft | 449 kts | 190° |
| 2026-05-06 13:15 | 42.93585 | -1.66886 | 39000 ft | 450 kts | 190° |
| 2026-05-06 13:15 | 42.87369 | -1.67907 | 39006 ft | 450 kts | 190° |
| 2026-05-06 13:16 | 42.81160 | -1.68925 | 39004 ft | 449 kts | 191° |
| 2026-05-06 13:16 | 42.75002 | -1.70015 | 39000 ft | 445 kts | 195° |
| 2026-05-06 13:17 | 42.69288 | -1.72930 | 39012 ft | 438 kts | 210° |
| 2026-05-06 13:17 | 42.63830 | -1.76622 | 39001 ft | 438 kts | 209° |
| 2026-05-06 13:18 | 42.58367 | -1.80293 | 38990 ft | 439 kts | 209° |
| 2026-05-06 13:18 | 42.52899 | -1.83959 | 38989 ft | 438 kts | 210° |
| 2026-05-06 13:19 | 42.47438 | -1.87612 | 38985 ft | 438 kts | 210° |
| 2026-05-06 13:19 | 42.41983 | -1.91256 | 38981 ft | 437 kts | 210° |
| 2026-05-06 13:20 | 42.36526 | -1.94891 | 38983 ft | 437 kts | 210° |
| 2026-05-06 13:20 | 42.31112 | -1.98497 | 38980 ft | 437 kts | 210° |
| 2026-05-06 13:21 | 42.25670 | -2.02117 | 38980 ft | 436 kts | 210° |
| 2026-05-06 13:21 | 42.20223 | -2.05724 | 38980 ft | 437 kts | 210° |
| 2026-05-06 13:22 | 42.14773 | -2.09326 | 38975 ft | 436 kts | 210° |
| 2026-05-06 13:22 | 42.09323 | -2.12921 | 38962 ft | 436 kts | 210° |
| 2026-05-06 13:23 | 42.03900 | -2.16492 | 38962 ft | 435 kts | 210° |
| 2026-05-06 13:23 | 41.98469 | -2.20061 | 38963 ft | 435 kts | 210° |
| 2026-05-06 13:24 | 41.93044 | -2.23620 | 38962 ft | 435 kts | 210° |
| 2026-05-06 13:24 | 41.87740 | -2.27093 | 38960 ft | 434 kts | 210° |
| 2026-05-06 13:25 | 41.82326 | -2.30629 | 38965 ft | 435 kts | 210° |
| 2026-05-06 13:25 | 41.76903 | -2.34167 | 38970 ft | 434 kts | 210° |
| 2026-05-06 13:26 | 41.71491 | -2.37690 | 38968 ft | 432 kts | 210° |
| 2026-05-06 13:26 | 41.66112 | -2.41186 | 38971 ft | 431 kts | 210° |
| 2026-05-06 13:27 | 41.60693 | -2.44700 | 38963 ft | 431 kts | 210° |
| 2026-05-06 13:27 | 41.55326 | -2.48174 | 38962 ft | 431 kts | 210° |
| 2026-05-06 13:28 | 41.49962 | -2.51640 | 38958 ft | 431 kts | 210° |
| 2026-05-06 13:28 | 41.44572 | -2.55117 | 38964 ft | 431 kts | 210° |
| 2026-05-06 13:29 | 41.39184 | -2.58585 | 38963 ft | 430 kts | 210° |
| 2026-05-06 13:29 | 41.33673 | -2.61771 | 38965 ft | 434 kts | 200° |
| 2026-05-06 13:30 | 41.27626 | -2.62731 | 38974 ft | 445 kts | 182° |
| 2026-05-06 13:30 | 41.21452 | -2.62025 | 38960 ft | 445 kts | 181° |
| 2026-05-06 13:31 | 41.15258 | -2.61451 | 38975 ft | 444 kts | 181° |
| 2026-05-06 13:31 | 41.09097 | -2.60901 | 38972 ft | 445 kts | 181° |
| 2026-05-06 13:32 | 41.02947 | -2.60354 | 38969 ft | 445 kts | 181° |
| 2026-05-06 13:32 | 40.96766 | -2.59804 | 38958 ft | 444 kts | 181° |
| 2026-05-06 13:33 | 40.90649 | -2.59250 | 38961 ft | 443 kts | 181° |
| 2026-05-06 13:33 | 40.84522 | -2.58698 | 38966 ft | 443 kts | 181° |
| 2026-05-06 13:34 | 40.78375 | -2.58144 | 38960 ft | 442 kts | 181° |
| 2026-05-06 13:34 | 40.72205 | -2.57590 | 38965 ft | 443 kts | 182° |
| 2026-05-06 13:35 | 40.66045 | -2.57037 | 38955 ft | 442 kts | 182° |
| 2026-05-06 13:35 | 40.59901 | -2.56487 | 38958 ft | 442 kts | 181° |
| 2026-05-06 13:36 | 40.53767 | -2.55938 | 38952 ft | 442 kts | 181° |
| 2026-05-06 13:36 | 40.47651 | -2.55393 | 38951 ft | 441 kts | 182° |
| 2026-05-06 13:37 | 40.41531 | -2.54848 | 38950 ft | 440 kts | 181° |
| 2026-05-06 13:37 | 40.35510 | -2.55466 | 38952 ft | 429 kts | 199° |
| 2026-05-06 13:38 | 40.29949 | -2.58100 | 38949 ft | 425 kts | 206° |
| 2026-05-06 13:38 | 40.24403 | -2.60891 | 38945 ft | 424 kts | 205° |
| 2026-05-06 13:39 | 40.18895 | -2.63654 | 38945 ft | 425 kts | 206° |
| 2026-05-06 13:39 | 40.13380 | -2.66414 | 38952 ft | 425 kts | 205° |
| 2026-05-06 13:40 | 40.07888 | -2.69159 | 38949 ft | 424 kts | 205° |
| 2026-05-06 13:40 | 40.02397 | -2.71899 | 38954 ft | 422 kts | 205° |
| 2026-05-06 13:41 | 39.96913 | -2.74630 | 38952 ft | 422 kts | 205° |
| 2026-05-06 13:41 | 39.91385 | -2.77378 | 38945 ft | 423 kts | 205° |
| 2026-05-06 13:42 | 39.85946 | -2.80078 | 38952 ft | 423 kts | 205° |
| 2026-05-06 13:42 | 39.80416 | -2.82817 | 38945 ft | 424 kts | 205° |
| 2026-05-06 13:43 | 39.74942 | -2.85525 | 38944 ft | 423 kts | 205° |
| 2026-05-06 13:43 | 39.69435 | -2.88245 | 38945 ft | 424 kts | 205° |
| 2026-05-06 13:44 | 39.63952 | -2.90947 | 38938 ft | 422 kts | 205° |
| 2026-05-06 13:44 | 39.58495 | -2.93634 | 38940 ft | 420 kts | 205° |
| 2026-05-06 13:45 | 39.53021 | -2.96332 | 38936 ft | 421 kts | 205° |
| 2026-05-06 13:45 | 39.44778 | -3.00386 | 38935 ft | 421 kts | 205° |
| 2026-05-06 13:46 | 39.39312 | -3.03068 | 38933 ft | 421 kts | 205° |
| 2026-05-06 13:46 | 39.33836 | -3.05737 | 38933 ft | 420 kts | 205° |
| 2026-05-06 13:47 | 39.28336 | -3.08413 | 38931 ft | 420 kts | 205° |
| 2026-05-06 13:47 | 39.22884 | -3.11063 | 38926 ft | 420 kts | 205° |
| 2026-05-06 13:48 | 39.17394 | -3.13726 | 38927 ft | 420 kts | 205° |
| 2026-05-06 13:48 | 39.11914 | -3.16380 | 38929 ft | 419 kts | 205° |
| 2026-05-06 13:49 | 39.06485 | -3.19005 | 38925 ft | 420 kts | 205° |
| 2026-05-06 13:49 | 39.01014 | -3.21645 | 38925 ft | 419 kts | 205° |
| 2026-05-06 13:50 | 38.95562 | -3.24272 | 38924 ft | 418 kts | 205° |
| 2026-05-06 13:50 | 38.90117 | -3.26891 | 38923 ft | 418 kts | 205° |
| 2026-05-06 13:51 | 38.84676 | -3.29505 | 38927 ft | 418 kts | 205° |
| 2026-05-06 13:51 | 38.79215 | -3.32123 | 38927 ft | 417 kts | 205° |
| 2026-05-06 13:52 | 38.73808 | -3.34712 | 38927 ft | 417 kts | 205° |
| 2026-05-06 13:52 | 38.68379 | -3.37306 | 38927 ft | 417 kts | 205° |
| 2026-05-06 13:53 | 38.62979 | -3.39881 | 38920 ft | 405 kts | 206° |
| 2026-05-06 13:53 | 38.57780 | -3.42359 | 38927 ft | 396 kts | 206° |
| 2026-05-06 13:54 | 38.52573 | -3.44836 | 38532 ft | 401 kts | 206° |
| 2026-05-06 13:54 | 38.49954 | -3.46080 | 38099 ft | 398 kts | 206° |
| 2026-05-06 13:54 | 38.47371 | -3.47306 | 37660 ft | 394 kts | 206° |
| 2026-05-06 13:55 | 38.44842 | -3.48506 | 37232 ft | 391 kts | 206° |
| 2026-05-06 13:55 | 38.42281 | -3.49720 | 36795 ft | 390 kts | 206° |
| 2026-05-06 13:55 | 38.39761 | -3.50913 | 36377 ft | 388 kts | 206° |
| 2026-05-06 13:55 | 38.37202 | -3.52125 | 36008 ft | 389 kts | 206° |
| 2026-05-06 13:56 | 38.34694 | -3.53310 | 35545 ft | 388 kts | 206° |
| 2026-05-06 13:56 | 38.32130 | -3.54522 | 35102 ft | 387 kts | 206° |
| 2026-05-06 13:56 | 38.29610 | -3.55712 | 34671 ft | 385 kts | 206° |
| 2026-05-06 13:56 | 38.27095 | -3.56899 | 34183 ft | 383 kts | 206° |
| 2026-05-06 13:57 | 38.24598 | -3.58077 | 33758 ft | 385 kts | 206° |
| 2026-05-06 13:57 | 38.22070 | -3.59270 | 33740 ft | 387 kts | 206° |
| 2026-05-06 13:57 | 38.17028 | -3.61880 | 32558 ft | 397 kts | 214° |
| 2026-05-06 13:58 | 38.14840 | -3.63882 | 32067 ft | 382 kts | 224° |
| 2026-05-06 13:58 | 38.13050 | -3.66277 | 31620 ft | 380 kts | 233° |
| 2026-05-06 13:58 | 38.11655 | -3.68967 | 31222 ft | 385 kts | 238° |
| 2026-05-06 13:58 | 38.10208 | -3.71817 | 30782 ft | 386 kts | 237° |
| 2026-05-06 13:59 | 38.08710 | -3.74664 | 30345 ft | 384 kts | 237° |
| 2026-05-06 13:59 | 38.07204 | -3.77489 | 29915 ft | 383 kts | 236° |
| 2026-05-06 13:59 | 38.05712 | -3.80272 | 29498 ft | 382 kts | 237° |
| 2026-05-06 13:59 | 38.04226 | -3.83040 | 29078 ft | 381 kts | 236° |
| 2026-05-06 14:00 | 38.02734 | -3.85814 | 28647 ft | 379 kts | 237° |
| 2026-05-06 14:00 | 38.01236 | -3.88598 | 28229 ft | 378 kts | 236° |
| 2026-05-06 14:00 | 37.99743 | -3.91368 | 27808 ft | 378 kts | 236° |
| 2026-05-06 14:00 | 37.98265 | -3.94108 | 27385 ft | 377 kts | 236° |
| 2026-05-06 14:01 | 37.96802 | -3.96818 | 26973 ft | 375 kts | 236° |
| 2026-05-06 14:01 | 37.95324 | -3.99554 | 26569 ft | 374 kts | 237° |
| 2026-05-06 14:01 | 37.93859 | -4.02263 | 26158 ft | 375 kts | 236° |
| 2026-05-06 14:01 | 37.92384 | -4.04990 | 25735 ft | 373 kts | 237° |
| 2026-05-06 14:02 | 37.90926 | -4.07682 | 25322 ft | 372 kts | 237° |
| 2026-05-06 14:02 | 37.89473 | -4.10364 | 24918 ft | 372 kts | 236° |
| 2026-05-06 14:02 | 37.87989 | -4.13098 | 24496 ft | 371 kts | 237° |
| 2026-05-06 14:02 | 37.86528 | -4.15790 | 24084 ft | 369 kts | 237° |
| 2026-05-06 14:03 | 37.85081 | -4.18454 | 23680 ft | 369 kts | 237° |
| 2026-05-06 14:03 | 37.83640 | -4.21104 | 23264 ft | 367 kts | 237° |
| 2026-05-06 14:03 | 37.82199 | -4.23753 | 22876 ft | 364 kts | 237° |
| 2026-05-06 14:03 | 37.80761 | -4.26394 | 22466 ft | 363 kts | 237° |
| 2026-05-06 14:04 | 37.79336 | -4.29008 | 22075 ft | 361 kts | 237° |
| 2026-05-06 14:04 | 37.77930 | -4.31585 | 21682 ft | 360 kts | 237° |
| 2026-05-06 14:04 | 37.76508 | -4.34191 | 21275 ft | 357 kts | 237° |
| 2026-05-06 14:04 | 37.75102 | -4.36763 | 20886 ft | 356 kts | 237° |
| 2026-05-06 14:05 | 37.73688 | -4.39350 | 20494 ft | 356 kts | 237° |
| 2026-05-06 14:05 | 37.72295 | -4.41894 | 20100 ft | 354 kts | 236° |
| 2026-05-06 14:05 | 37.70890 | -4.44460 | 19708 ft | 352 kts | 237° |
| 2026-05-06 14:05 | 37.69498 | -4.47002 | 19320 ft | 350 kts | 236° |
| 2026-05-06 14:06 | 37.68110 | -4.49532 | 18937 ft | 350 kts | 236° |
| 2026-05-06 14:06 | 37.66739 | -4.52031 | 18552 ft | 348 kts | 236° |
| 2026-05-06 14:06 | 37.65363 | -4.54535 | 18166 ft | 347 kts | 236° |
| 2026-05-06 14:06 | 37.63954 | -4.57060 | 17775 ft | 347 kts | 232° |
| 2026-05-06 14:07 | 37.62072 | -4.58928 | 17425 ft | 348 kts | 208° |
| 2026-05-06 14:07 | 37.59846 | -4.60139 | 17045 ft | 349 kts | 205° |
| 2026-05-06 14:07 | 37.57606 | -4.61288 | 16654 ft | 348 kts | 204° |
| 2026-05-06 14:07 | 37.55345 | -4.62437 | 16268 ft | 345 kts | 204° |
| 2026-05-06 14:08 | 37.53126 | -4.63559 | 15885 ft | 343 kts | 204° |
| 2026-05-06 14:08 | 37.50924 | -4.64670 | 15506 ft | 341 kts | 204° |
| 2026-05-06 14:08 | 37.48691 | -4.65796 | 15126 ft | 340 kts | 203° |
| 2026-05-06 14:08 | 37.46510 | -4.66895 | 14753 ft | 338 kts | 203° |
| 2026-05-06 14:09 | 37.44316 | -4.67999 | 14378 ft | 337 kts | 203° |
| 2026-05-06 14:09 | 37.42148 | -4.69089 | 14007 ft | 335 kts | 203° |
| 2026-05-06 14:09 | 37.39987 | -4.70175 | 13638 ft | 333 kts | 202° |
| 2026-05-06 14:09 | 37.37835 | -4.71257 | 13272 ft | 332 kts | 202° |
| 2026-05-06 14:10 | 37.35713 | -4.72321 | 12906 ft | 326 kts | 202° |
| 2026-05-06 14:10 | 37.33630 | -4.73366 | 12543 ft | 314 kts | 202° |
| 2026-05-06 14:10 | 37.31635 | -4.74366 | 12209 ft | 303 kts | 202° |
| 2026-05-06 14:10 | 37.29703 | -4.75335 | 11875 ft | 293 kts | 202° |
| 2026-05-06 14:11 | 37.27839 | -4.76268 | 11556 ft | 284 kts | 202° |
| 2026-05-06 14:11 | 37.26041 | -4.77169 | 11245 ft | 275 kts | 202° |
| 2026-05-06 14:11 | 37.24285 | -4.78047 | 10942 ft | 267 kts | 202° |
| 2026-05-06 14:11 | 37.22588 | -4.78896 | 10652 ft | 259 kts | 202° |
| 2026-05-06 14:12 | 37.20929 | -4.79725 | 10370 ft | 252 kts | 202° |
| 2026-05-06 14:12 | 37.19241 | -4.80193 | 10099 ft | 246 kts | 182° |
| 2026-05-06 14:12 | 37.17570 | -4.80197 | 9875 ft | 239 kts | 180° |
| 2026-05-06 14:12 | 37.15906 | -4.80187 | 9640 ft | 237 kts | 180° |
| 2026-05-06 14:13 | 37.14256 | -4.80174 | 9391 ft | 238 kts | 180° |
| 2026-05-06 14:13 | 37.12577 | -4.80158 | 9135 ft | 239 kts | 180° |
| 2026-05-06 14:13 | 37.10930 | -4.80140 | 8871 ft | 238 kts | 180° |
| 2026-05-06 14:13 | 37.09249 | -4.80122 | 8604 ft | 238 kts | 180° |
| 2026-05-06 14:14 | 37.07613 | -4.80104 | 8349 ft | 236 kts | 179° |
| 2026-05-06 14:14 | 37.05965 | -4.80086 | 8117 ft | 235 kts | 179° |
| 2026-05-06 14:14 | 37.04313 | -4.80067 | 7878 ft | 235 kts | 179° |
| 2026-05-06 14:14 | 37.02669 | -4.80049 | 7624 ft | 235 kts | 179° |
| 2026-05-06 14:15 | 37.01030 | -4.80030 | 7364 ft | 234 kts | 179° |
| 2026-05-06 14:15 | 36.99402 | -4.80012 | 7132 ft | 232 kts | 179° |
| 2026-05-06 14:15 | 36.97768 | -4.79994 | 6901 ft | 233 kts | 179° |
| 2026-05-06 14:15 | 36.96153 | -4.79977 | 6645 ft | 233 kts | 179° |
| 2026-05-06 14:16 | 36.94513 | -4.79959 | 6394 ft | 234 kts | 179° |
| 2026-05-06 14:16 | 36.92907 | -4.79783 | 6130 ft | 233 kts | 162° |
| 2026-05-06 14:16 | 36.91373 | -4.79140 | 5933 ft | 232 kts | 160° |
| 2026-05-06 14:16 | 36.89832 | -4.78475 | 5673 ft | 232 kts | 160° |
| 2026-05-06 14:17 | 36.88318 | -4.77818 | 5415 ft | 231 kts | 160° |
| 2026-05-06 14:17 | 36.86806 | -4.77119 | 5151 ft | 230 kts | 153° |
| 2026-05-06 14:17 | 36.85406 | -4.76194 | 4970 ft | 228 kts | 151° |
| 2026-05-06 14:17 | 36.84002 | -4.75248 | 4731 ft | 229 kts | 151° |
| 2026-05-06 14:18 | 36.82591 | -4.74297 | 4488 ft | 230 kts | 151° |
| 2026-05-06 14:18 | 36.81170 | -4.73340 | 4243 ft | 229 kts | 151° |
| 2026-05-06 14:18 | 36.79776 | -4.72401 | 3996 ft | 229 kts | 151° |
| 2026-05-06 14:18 | 36.78368 | -4.71452 | 3737 ft | 228 kts | 150° |
| 2026-05-06 14:19 | 36.77214 | -4.70137 | 3464 ft | 227 kts | 118° |
| 2026-05-06 14:19 | 36.76501 | -4.68390 | 3200 ft | 224 kts | 115° |
| 2026-05-06 14:19 | 36.75807 | -4.66695 | 2904 ft | 219 kts | 116° |
| 2026-05-06 14:19 | 36.75103 | -4.65008 | 2583 ft | 215 kts | 116° |
| 2026-05-06 14:20 | 36.74426 | -4.63394 | 2299 ft | 208 kts | 116° |
| 2026-05-06 14:20 | 36.73761 | -4.61814 | 2010 ft | 203 kts | 116° |
| 2026-05-06 14:20 | 36.73121 | -4.60299 | 1780 ft | 190 kts | 116° |
| 2026-05-06 14:20 | 36.72523 | -4.58869 | 1503 ft | 180 kts | 116° |
| 2026-05-06 14:21 | 36.71959 | -4.57528 | 1256 ft | 171 kts | 117° |
| 2026-05-06 14:21 | 36.71425 | -4.56262 | 1026 ft | 156 kts | 117° |
| 2026-05-06 14:21 | 36.70949 | -4.55135 | 822 ft | 138 kts | 117° |
| 2026-05-06 14:21 | 36.70525 | -4.54127 | 649 ft | 127 kts | 118° |
| 2026-05-06 14:22 | 36.70116 | -4.53159 | 501 ft | 124 kts | 117° |
| 2026-05-06 14:22 | 36.69708 | -4.52188 | 354 ft | 125 kts | 118° |
| 2026-05-06 14:22 | 36.69297 | -4.51224 | 182 ft | 126 kts | 119° |
| 2026-05-06 14:22 | 36.68890 | -4.50290 | 66 ft | 116 kts | 103° |
| 2026-05-06 14:23 | 36.68589 | -4.49552 | 63 ft | 72 kts | 117° |
| 2026-05-06 14:23 | 36.68411 | -4.49134 | 63 ft | 36 kts | 120° |
| 2026-05-06 14:23 | 36.68246 | -4.48909 | 63 ft | 34 kts | 150° |
| 2026-05-06 14:23 | 36.68148 | -4.48864 | 62 ft | 6 kts | 212° |
| 2026-05-06 14:24 | 36.68138 | -4.48927 | 63 ft | 10 kts | 294° |
| 2026-05-06 14:24 | 36.68171 | -4.49010 | 62 ft | 10 kts | 296° |
| 2026-05-06 14:24 | 36.68206 | -4.49097 | 62 ft | 11 kts | 298° |
| 2026-05-06 14:24 | 36.68246 | -4.49187 | 63 ft | 12 kts | 298° |
| 2026-05-06 14:25 | 36.68280 | -4.49287 | 62 ft | 12 kts | 267° |
| 2026-05-06 14:25 | 36.68214 | -4.49390 | 63 ft | 17 kts | 220° |
| 2026-05-06 14:25 | 36.68121 | -4.49496 | 62 ft | 18 kts | 222° |
| 2026-05-06 14:25 | 36.68024 | -4.49569 | 62 ft | 7 kts | 149° |
| 2026-05-06 14:26 | 36.67977 | -4.49510 | 62 ft | 13 kts | 130° |
| 2026-05-06 14:26 | 36.67921 | -4.49432 | 62 ft | 3 kts | 152° |
| 2026-05-06 14:26 | 36.67889 | -4.49439 | 62 ft | 5 kts | 209° |
| 2026-05-06 14:26 | 36.67867 | -4.49457 | 62 ft | 5 kts | 213° |
| 2026-05-06 14:27 | 36.67864 | -4.49459 | 62 ft | 0 kts | 213° |